createdAt,value
2018-10-01T00:00:35.686Z,19.13
2018-10-01T00:03:05.208Z,33.37
2018-10-01T00:05:34.858Z,23.20
2018-10-01T00:08:03.654Z,29.57
2018-10-01T00:10:32.456Z,21.93
2018-10-01T00:13:01.460Z,23.73
2018-10-01T00:15:30.310Z,21.80
2018-10-01T00:17:59.147Z,22.00
2018-10-01T00:20:33.168Z,22.07
2018-10-01T00:23:01.752Z,17.60
2018-10-01T00:25:30.352Z,24.90
2018-10-01T00:27:58.756Z,24.80
2018-10-01T00:30:27.900Z,23.43
2018-10-01T00:32:56.946Z,19.77
2018-10-01T00:35:26.146Z,29.27
2018-10-01T00:37:54.657Z,16.03
2018-10-01T00:40:23.206Z,22.93
2018-10-01T00:42:51.756Z,22.63
2018-10-01T00:45:21.093Z,19.93
2018-10-01T00:47:49.938Z,20.73
2018-10-01T00:50:21.728Z,15.83
2018-10-01T00:52:50.331Z,24.53
2018-10-01T00:55:19.421Z,24.73
2018-10-01T00:57:47.937Z,19.27
2018-10-01T01:00:16.447Z,20.10
2018-10-01T01:02:44.898Z,24.37
2018-10-01T01:05:13.729Z,20.90
2018-10-01T01:07:42.529Z,21.27
2018-10-01T01:10:11.014Z,26.30
2018-10-01T01:12:39.540Z,15.27
2018-10-01T01:15:08.082Z,21.77
2018-10-01T01:17:37.263Z,20.17
2018-10-01T01:20:05.873Z,22.63
2018-10-01T01:22:34.585Z,19.43
2018-10-01T01:25:03.167Z,23.53
2018-10-01T01:27:32.109Z,19.80
2018-10-01T01:30:00.792Z,18.13
2018-10-01T01:32:29.290Z,22.03
2018-10-01T01:34:57.923Z,21.20
2018-10-01T01:37:26.622Z,16.57
2018-10-01T01:39:55.229Z,21.43
2018-10-01T01:42:23.726Z,15.60
2018-10-01T01:44:52.344Z,18.70
2018-10-01T01:47:21.139Z,16.00
2018-10-01T01:49:49.626Z,23.67
2018-10-01T01:52:18.779Z,19.40
2018-10-01T01:54:47.230Z,16.27
2018-10-01T01:57:15.795Z,18.07
2018-10-01T01:59:45.017Z,24.03
2018-10-01T02:02:13.463Z,19.00
2018-10-01T02:04:42.272Z,25.30
2018-10-01T02:07:11.073Z,15.50
2018-10-01T02:09:40.136Z,18.87
2018-10-01T02:12:08.763Z,15.37
2018-10-01T02:14:37.491Z,33.67
2018-10-01T02:17:05.978Z,15.53
2018-10-01T02:19:34.439Z,16.47
2018-10-01T02:22:02.855Z,25.43
2018-10-01T02:24:31.540Z,27.87
2018-10-01T02:27:00.071Z,15.53
2018-10-01T02:29:29.997Z,15.03
2018-10-01T02:31:59.795Z,16.73
2018-10-01T02:34:28.917Z,20.10
2018-10-01T02:36:57.664Z,20.93
2018-10-01T02:39:26.141Z,21.00
2018-10-01T02:41:55.041Z,13.53
2018-10-01T02:44:23.844Z,15.70
2018-10-01T02:46:52.333Z,14.87
2018-10-01T02:49:21.711Z,21.87
2018-10-01T02:51:54.386Z,18.10
2018-10-01T02:54:26.948Z,20.07
2018-10-01T02:56:55.517Z,22.80
2018-10-01T02:59:24.055Z,16.00
2018-10-01T03:01:52.596Z,26.50
2018-10-01T03:04:21.444Z,13.77
2018-10-01T03:06:50.426Z,11.97
2018-10-01T03:09:19.403Z,22.43
2018-10-01T03:11:48.043Z,15.03
2018-10-01T03:14:17.222Z,11.77
2018-10-01T03:16:45.706Z,20.87
2018-10-01T03:19:14.110Z,20.60
2018-10-01T03:21:42.859Z,15.60
2018-10-01T03:24:11.365Z,23.90
2018-10-01T03:26:40.116Z,18.23
2018-10-01T03:29:08.591Z,11.07
2018-10-01T03:31:37.221Z,11.30
2018-10-01T03:34:05.856Z,17.37
2018-10-01T03:36:34.362Z,8.47
2018-10-01T03:39:03.039Z,12.27
2018-10-01T03:41:31.620Z,8.57
2018-10-01T03:44:00.100Z,18.17
2018-10-01T03:46:29.406Z,17.30
2018-10-01T03:48:57.882Z,17.63
2018-10-01T03:51:26.547Z,15.70
2018-10-01T03:53:55.080Z,26.13
2018-10-01T03:56:23.534Z,27.93
2018-10-01T03:58:52.922Z,16.07
2018-10-01T04:01:21.669Z,14.83
2018-10-01T04:03:50.166Z,22.37
2018-10-01T04:06:19.059Z,12.20
2018-10-01T04:08:48.021Z,10.20
2018-10-01T04:11:17.358Z,13.57
2018-10-01T04:13:45.965Z,16.30
2018-10-01T04:16:14.561Z,25.77
2018-10-01T04:18:43.019Z,16.30
2018-10-01T04:21:11.633Z,23.77
2018-10-01T04:23:40.363Z,11.93
2018-10-01T04:26:08.769Z,7.57
2018-10-01T04:28:37.249Z,20.37
2018-10-01T04:31:06.984Z,11.13
2018-10-01T04:33:35.527Z,19.43
2018-10-01T04:36:04.051Z,14.53
2018-10-01T04:38:32.877Z,12.37
2018-10-01T04:41:01.457Z,13.10
2018-10-01T04:43:29.956Z,15.60
2018-10-01T04:45:58.890Z,10.53
2018-10-01T04:48:27.358Z,9.80
2018-10-01T04:50:55.862Z,24.47
2018-10-01T04:53:24.967Z,10.67
2018-10-01T04:55:53.421Z,10.80
2018-10-01T04:58:22.376Z,26.73
2018-10-01T05:00:50.834Z,16.83
2018-10-01T05:03:20.061Z,11.30
2018-10-01T05:05:48.645Z,18.13
2018-10-01T05:08:17.138Z,18.70
2018-10-01T05:10:45.866Z,11.37
2018-10-01T05:13:15.236Z,9.13
2018-10-01T05:15:43.830Z,15.20
2018-10-01T05:18:12.301Z,14.03
2018-10-01T05:20:42.010Z,11.50
2018-10-01T05:23:10.852Z,9.83
2018-10-01T05:25:39.299Z,13.73
2018-10-01T05:28:07.904Z,16.53
2018-10-01T05:30:36.716Z,12.53
2018-10-01T05:33:05.225Z,8.57
2018-10-01T05:35:34.545Z,15.33
2018-10-01T05:38:03.836Z,9.70
2018-10-01T05:40:32.566Z,11.43
2018-10-01T05:43:01.235Z,17.07
2018-10-01T05:45:30.231Z,15.47
2018-10-01T05:47:59.082Z,14.13
2018-10-01T05:50:27.601Z,14.47
2018-10-01T05:52:56.880Z,16.57
2018-10-01T05:55:25.379Z,11.13
2018-10-01T05:57:54.294Z,14.47
2018-10-01T06:00:23.016Z,9.17
2018-10-01T06:02:51.697Z,20.70
2018-10-01T06:05:20.265Z,16.13
2018-10-01T06:07:48.901Z,18.60
2018-10-01T06:10:17.511Z,15.90
2018-10-01T06:12:46.707Z,21.13
2018-10-01T06:15:15.354Z,12.97
2018-10-01T06:17:44.110Z,12.27
2018-10-01T06:20:12.856Z,12.93
2018-10-01T06:22:41.604Z,6.77
2018-10-01T06:25:10.260Z,16.37
2018-10-01T06:27:38.631Z,4.83
2018-10-01T06:30:07.237Z,10.27
2018-10-01T06:32:35.703Z,19.40
2018-10-01T06:35:04.136Z,12.73
2018-10-01T06:37:32.736Z,6.43
2018-10-01T06:40:01.537Z,16.80
2018-10-01T06:42:30.364Z,23.07
2018-10-01T06:44:59.748Z,9.90
2018-10-01T06:47:30.234Z,13.73
2018-10-01T06:49:58.795Z,6.50
2018-10-01T06:52:27.285Z,16.03
2018-10-01T06:54:56.558Z,8.43
2018-10-01T06:57:25.030Z,10.20
2018-10-01T06:59:54.566Z,4.30
2018-10-01T07:02:23.020Z,4.80
2018-10-01T07:04:51.610Z,15.77
2018-10-01T07:07:20.185Z,7.23
2018-10-01T07:09:48.644Z,5.43
2018-10-01T07:12:17.149Z,9.87
2018-10-01T07:14:46.119Z,12.80
2018-10-01T07:17:15.852Z,10.83
2018-10-01T07:19:44.192Z,11.97
2018-10-01T07:22:12.726Z,9.47
2018-10-01T07:24:41.233Z,7.33
2018-10-01T07:27:09.842Z,3.60
2018-10-01T07:29:39.106Z,7.23
2018-10-01T07:32:07.780Z,10.27
2018-10-01T07:34:36.440Z,4.70
2018-10-01T07:37:05.204Z,5.93
2018-10-01T07:39:33.914Z,3.60
2018-10-01T07:42:02.478Z,5.27
2018-10-01T07:44:31.895Z,7.80
2018-10-01T07:47:00.942Z,5.33
2018-10-01T07:49:30.597Z,4.00
2018-10-01T07:51:59.146Z,7.97
2018-10-01T07:54:28.666Z,3.53
2018-10-01T07:56:57.718Z,5.67
2018-10-01T07:59:26.286Z,5.77
2018-10-01T08:01:54.812Z,5.10
2018-10-01T08:04:23.401Z,8.63
2018-10-01T08:06:52.445Z,2.73
2018-10-01T08:09:21.080Z,15.53
2018-10-01T08:11:49.512Z,3.00
2018-10-01T08:14:18.086Z,3.73
2018-10-01T08:16:46.626Z,3.67
2018-10-01T08:19:15.118Z,5.50
2018-10-01T08:21:43.641Z,20.50
2018-10-01T08:24:12.183Z,3.60
2018-10-01T08:26:40.958Z,6.83
2018-10-01T08:29:09.816Z,7.10
2018-10-01T08:31:38.362Z,7.00
2018-10-01T08:34:07.207Z,2.60
2018-10-01T08:36:35.713Z,7.90
2018-10-01T08:39:08.597Z,4.63
2018-10-01T08:41:37.083Z,8.23
2018-10-01T08:44:05.665Z,3.00
2018-10-01T08:46:34.354Z,3.27
2018-10-01T08:49:06.195Z,2.20
2018-10-01T08:51:38.806Z,3.70
2018-10-01T08:54:11.449Z,4.70
2018-10-01T08:56:40.172Z,2.37
2018-10-01T08:59:08.792Z,6.93
2018-10-01T09:01:37.253Z,2.97
2018-10-01T09:04:05.800Z,2.30
2018-10-01T09:06:34.265Z,5.90
2018-10-01T09:09:03.086Z,3.57
2018-10-01T09:11:31.702Z,9.60
2018-10-01T09:14:00.212Z,5.07
2018-10-01T09:16:28.872Z,1.30
2018-10-01T09:18:57.345Z,5.73
2018-10-01T09:21:25.910Z,3.67
2018-10-01T09:23:54.352Z,6.67
2018-10-01T09:26:23.347Z,2.70
2018-10-01T09:28:52.383Z,3.17
2018-10-01T09:31:21.031Z,2.93
2018-10-01T09:33:49.782Z,2.20
2018-10-01T09:36:18.295Z,2.40
2018-10-01T09:38:47.555Z,3.07
2018-10-01T09:41:16.034Z,1.20
2018-10-01T09:43:44.631Z,1.63
2018-10-01T09:46:13.639Z,5.23
2018-10-01T09:48:42.412Z,6.10
2018-10-01T09:51:11.760Z,3.83
2018-10-01T09:53:40.289Z,1.50
2018-10-01T09:56:08.805Z,1.00
2018-10-01T09:58:37.250Z,4.87
2018-10-01T10:01:09.835Z,2.93
2018-10-01T10:03:38.929Z,2.40
2018-10-01T10:06:07.981Z,3.13
2018-10-01T10:08:36.684Z,2.30
2018-10-01T10:11:05.183Z,2.90
2018-10-01T10:13:33.675Z,3.20
2018-10-01T10:16:02.238Z,5.37
2018-10-01T10:18:30.722Z,1.60
2018-10-01T10:20:59.185Z,0.90
2018-10-01T10:23:27.768Z,3.43
2018-10-01T10:25:57.024Z,3.73
2018-10-01T10:28:25.349Z,3.97
2018-10-01T10:30:54.177Z,2.20
2018-10-01T10:33:22.613Z,2.67
2018-10-01T10:35:51.066Z,1.00
2018-10-01T10:38:19.518Z,3.00
2018-10-01T10:40:47.899Z,7.57
2018-10-01T10:43:16.358Z,3.20
2018-10-01T10:45:45.761Z,9.50
2018-10-01T10:48:14.443Z,5.40
2018-10-01T10:50:43.229Z,4.90
2018-10-01T10:53:12.248Z,2.00
2018-10-01T10:55:41.950Z,2.60
2018-10-01T10:58:10.636Z,1.37
2018-10-01T11:00:39.139Z,1.00
2018-10-01T11:03:07.541Z,1.70
2018-10-01T11:05:36.617Z,4.67
2018-10-01T11:08:05.149Z,1.27
2018-10-01T11:10:33.684Z,3.73
2018-10-01T11:13:02.809Z,2.33
2018-10-01T11:15:31.839Z,2.03
2018-10-01T11:18:00.279Z,2.40
2018-10-01T11:20:29.207Z,6.53
2018-10-01T11:22:57.546Z,2.80
2018-10-01T11:25:26.302Z,1.37
2018-10-01T11:27:54.895Z,1.30
2018-10-01T11:30:23.626Z,1.10
2018-10-01T11:32:52.138Z,1.43
2018-10-01T11:35:20.749Z,6.33
2018-10-01T11:37:49.481Z,0.80
2018-10-01T11:40:18.247Z,3.97
2018-10-01T11:42:47.199Z,1.57
2018-10-01T11:45:15.724Z,7.07
2018-10-01T11:47:44.496Z,2.00
2018-10-01T11:50:12.977Z,5.83
2018-10-01T11:52:41.716Z,3.83
2018-10-01T11:55:10.147Z,2.83
2018-10-01T11:57:38.872Z,1.33
2018-10-01T12:00:08.589Z,1.97
2018-10-01T12:02:37.061Z,1.60
2018-10-01T12:05:06.467Z,1.43
2018-10-01T12:07:35.573Z,0.93
2018-10-01T12:10:04.129Z,7.13
2018-10-01T12:12:32.517Z,4.10
2018-10-01T12:15:01.005Z,1.50
2018-10-01T12:17:29.669Z,2.57
2018-10-01T12:19:58.453Z,1.10
2018-10-01T12:22:26.894Z,12.67
2018-10-01T12:24:55.504Z,1.00
2018-10-01T12:27:24.013Z,1.73
2018-10-01T12:29:52.379Z,7.30
2018-10-01T12:32:21.268Z,5.53
2018-10-01T12:34:50.479Z,1.43
2018-10-01T12:37:18.845Z,1.40
2018-10-01T12:39:47.557Z,1.00
2018-10-01T12:42:16.014Z,0.70
2018-10-01T12:44:44.563Z,4.27
2018-10-01T12:47:13.377Z,1.10
2018-10-01T12:49:41.940Z,8.33
2018-10-01T12:52:10.397Z,2.73
2018-10-01T12:54:38.974Z,0.93
2018-10-01T12:57:08.061Z,3.57
2018-10-01T12:59:36.533Z,1.97
2018-10-01T13:02:04.912Z,2.40
2018-10-01T13:04:33.520Z,2.03
2018-10-01T13:07:02.355Z,1.13
2018-10-01T13:09:30.961Z,4.23
2018-10-01T13:11:59.657Z,10.20
2018-10-01T13:14:28.175Z,5.37
2018-10-01T13:16:56.785Z,5.80
2018-10-01T13:19:25.319Z,4.03
2018-10-01T13:21:54.191Z,4.50
2018-10-01T13:24:23.667Z,11.73
2018-10-01T13:26:53.142Z,7.80
2018-10-01T13:29:21.737Z,4.03
2018-10-01T13:31:54.123Z,8.53
2018-10-01T13:34:23.532Z,5.53
2018-10-01T13:36:51.960Z,2.50
2018-10-01T13:39:20.929Z,1.83
2018-10-01T13:41:49.373Z,1.73
2018-10-01T13:44:19.799Z,1.00
2018-10-01T13:46:48.163Z,1.00
2018-10-01T13:49:16.650Z,0.90
2018-10-01T13:51:45.166Z,1.50
2018-10-01T13:54:13.722Z,1.00
2018-10-01T13:56:42.238Z,1.67
2018-10-01T13:59:10.978Z,1.47
2018-10-01T14:01:40.429Z,1.63
2018-10-01T14:04:09.004Z,1.77
2018-10-01T14:06:37.455Z,1.40
2018-10-01T14:09:08.836Z,2.40
2018-10-01T14:11:37.501Z,3.27
2018-10-01T14:14:06.213Z,3.53
2018-10-01T14:16:34.905Z,12.20
2018-10-01T14:19:04.262Z,11.77
2018-10-01T14:21:32.716Z,4.93
2018-10-01T14:24:01.648Z,6.30
2018-10-01T14:26:30.661Z,2.60
2018-10-01T14:28:59.158Z,14.73
2018-10-01T14:31:28.602Z,4.50
2018-10-01T14:33:57.189Z,4.90
2018-10-01T14:36:25.847Z,8.53
2018-10-01T14:38:54.426Z,6.97
2018-10-01T14:41:22.953Z,4.03
2018-10-01T14:43:51.648Z,4.53
2018-10-01T14:46:23.095Z,14.27
2018-10-01T14:48:51.568Z,13.90
2018-10-01T14:51:20.422Z,8.60
2018-10-01T14:53:48.861Z,11.30
2018-10-01T14:56:18.658Z,16.17
2018-10-01T14:58:47.619Z,6.43
2018-10-01T15:01:16.395Z,15.40
2018-10-01T15:03:45.068Z,11.10
2018-10-01T15:06:15.928Z,5.80
2018-10-01T15:08:44.537Z,9.17
2018-10-01T15:11:14.881Z,11.37
2018-10-01T15:13:44.036Z,7.90
2018-10-01T15:16:13.283Z,4.40
2018-10-01T15:18:42.177Z,7.00
2018-10-01T15:21:11.037Z,6.00
2018-10-01T15:23:39.827Z,12.57
2018-10-01T15:26:08.587Z,5.30
2018-10-01T15:28:37.859Z,6.90
2018-10-01T15:31:06.611Z,3.83
2018-10-01T15:33:35.096Z,1.90
2018-10-01T15:36:03.685Z,5.17
2018-10-01T15:38:32.278Z,2.13
2018-10-01T15:41:00.961Z,3.13
2018-10-01T15:43:29.848Z,6.33
2018-10-01T15:45:58.453Z,6.70
2018-10-01T15:48:27.066Z,5.80
2018-10-01T15:50:55.793Z,2.70
2018-10-01T15:53:24.205Z,5.63
2018-10-01T15:55:54.694Z,7.30
2018-10-01T15:58:23.168Z,2.00
2018-10-01T16:00:51.774Z,4.10
2018-10-01T16:03:20.483Z,2.73
2018-10-01T16:05:49.095Z,5.00
2018-10-01T16:08:17.757Z,6.50
2018-10-01T16:10:46.985Z,2.30
2018-10-01T16:13:15.563Z,0.83
2018-10-01T16:15:44.338Z,0.87
2018-10-01T16:18:12.957Z,1.03
2018-10-01T16:20:41.656Z,4.90
2018-10-01T16:23:10.148Z,1.87
2018-10-01T16:25:38.897Z,0.80
2018-10-01T16:28:07.845Z,0.80
2018-10-01T16:30:38.026Z,2.70
2018-10-01T16:33:06.835Z,1.07
2018-10-01T16:35:35.496Z,1.30
2018-10-01T16:38:04.226Z,2.57
2018-10-01T16:40:33.274Z,1.90
2018-10-01T16:43:02.113Z,1.77
2018-10-01T16:45:30.594Z,8.67
2018-10-01T16:47:59.274Z,3.60
2018-10-01T16:50:27.820Z,1.53
2018-10-01T16:52:56.570Z,2.50
2018-10-01T16:55:25.181Z,4.47
2018-10-01T16:57:54.970Z,2.30
2018-10-01T17:00:28.567Z,3.43
2018-10-01T17:03:02.392Z,2.03
2018-10-01T17:05:36.239Z,4.50
2018-10-01T17:08:08.566Z,2.37
2018-10-01T17:10:40.626Z,2.50
2018-10-01T17:13:10.142Z,4.10
2018-10-01T17:15:40.155Z,2.83
2018-10-01T17:18:10.090Z,5.17
2018-10-01T17:20:44.581Z,4.60
2018-10-01T17:23:14.498Z,4.20
2018-10-01T17:25:46.453Z,4.30
2018-10-01T17:28:15.010Z,10.53
2018-10-01T17:30:43.823Z,6.17
2018-10-01T17:33:15.308Z,4.43
2018-10-01T17:35:46.113Z,3.40
2018-10-01T17:38:17.916Z,2.47
2018-10-01T17:40:46.542Z,3.33
2018-10-01T17:43:15.370Z,5.57
2018-10-01T17:45:44.028Z,10.97
2018-10-01T17:48:12.753Z,2.97
2018-10-01T17:50:41.444Z,3.10
2018-10-01T17:53:10.446Z,4.27
2018-10-01T17:55:40.453Z,4.70
2018-10-01T17:58:10.276Z,4.93
2018-10-01T18:00:39.070Z,5.60
2018-10-01T18:03:08.048Z,7.37
2018-10-01T18:05:36.938Z,8.30
2018-10-01T18:08:06.485Z,2.13
2018-10-01T18:10:37.981Z,6.43
2018-10-01T18:13:06.661Z,7.60
2018-10-01T18:15:35.483Z,3.10
2018-10-01T18:18:04.500Z,4.87
2018-10-01T18:20:33.192Z,6.93
2018-10-01T18:23:02.301Z,2.83
2018-10-01T18:25:31.776Z,10.13
2018-10-01T18:28:00.962Z,3.80
2018-10-01T18:30:29.776Z,8.33
2018-10-01T18:32:58.434Z,7.60
2018-10-01T18:35:27.072Z,7.00
2018-10-01T18:37:57.356Z,5.93
2018-10-01T18:40:26.113Z,9.23
2018-10-01T18:42:56.916Z,5.27
2018-10-01T18:45:26.846Z,2.53
2018-10-01T18:47:58.110Z,6.20
2018-10-01T18:50:28.375Z,5.73
2018-10-01T18:52:59.427Z,9.63
2018-10-01T18:55:28.427Z,6.20
2018-10-01T18:57:57.033Z,7.13
2018-10-01T19:00:26.270Z,2.60
2018-10-01T19:02:55.127Z,2.50
2018-10-01T19:05:23.774Z,7.70
2018-10-01T19:07:52.614Z,5.20
2018-10-01T19:10:22.220Z,3.73
2018-10-01T19:12:50.796Z,6.63
2018-10-01T19:15:19.279Z,7.03
2018-10-01T19:17:48.256Z,9.20
2018-10-01T19:20:16.974Z,10.37
2018-10-01T19:22:45.644Z,12.30
2018-10-01T19:25:14.926Z,7.20
2018-10-01T19:27:43.410Z,8.33
2018-10-01T19:30:12.471Z,4.60
2018-10-01T19:32:41.143Z,9.30
2018-10-01T19:35:09.703Z,6.43
2018-10-01T19:37:38.586Z,3.40
2018-10-01T19:40:08.082Z,6.63
2018-10-01T19:42:37.708Z,10.07
2018-10-01T19:45:06.892Z,2.80
2018-10-01T19:47:35.520Z,5.20
2018-10-01T19:50:04.118Z,7.63
2018-10-01T19:52:32.789Z,14.33
2018-10-01T19:55:01.356Z,5.30
2018-10-01T19:57:29.799Z,3.23
2018-10-01T19:59:58.427Z,8.67
2018-10-01T20:02:27.021Z,5.93
2018-10-01T20:04:55.922Z,7.13
2018-10-01T20:07:24.557Z,5.67
2018-10-01T20:09:53.469Z,7.50
2018-10-01T20:12:21.876Z,8.50
2018-10-01T20:14:50.753Z,2.23
2018-10-01T20:17:20.511Z,7.83
2018-10-01T20:19:49.243Z,9.27
2018-10-01T20:22:18.145Z,6.30
2018-10-01T20:24:47.704Z,4.97
2018-10-01T20:27:16.309Z,9.30
2018-10-01T20:29:44.820Z,11.10
2018-10-01T20:32:13.961Z,7.73
2018-10-01T20:34:42.557Z,7.40
2018-10-01T20:37:11.848Z,6.70
2018-10-01T20:39:40.738Z,9.90
2018-10-01T20:42:09.980Z,15.93
2018-10-01T20:44:38.752Z,4.00
2018-10-01T20:47:07.418Z,3.93
2018-10-01T20:49:36.111Z,4.13
2018-10-01T20:52:05.248Z,10.43
2018-10-01T20:54:33.894Z,12.60
2018-10-01T20:57:02.634Z,3.40
2018-10-01T20:59:31.276Z,7.57
2018-10-01T21:02:00.888Z,5.83
2018-10-01T21:04:29.389Z,5.30
2018-10-01T21:06:58.314Z,7.70
2018-10-01T21:09:26.835Z,10.63
2018-10-01T21:11:56.220Z,8.80
2018-10-01T21:14:25.879Z,7.53
2018-10-01T21:16:56.045Z,10.37
2018-10-01T21:19:24.608Z,8.30
2018-10-01T21:21:53.070Z,8.33
2018-10-01T21:24:21.644Z,8.90
2018-10-01T21:26:50.184Z,8.03
2018-10-01T21:29:18.768Z,10.87
2018-10-01T21:31:47.387Z,7.47
2018-10-01T21:34:16.837Z,11.90
2018-10-01T21:36:45.411Z,13.33
2018-10-01T21:39:22.622Z,7.23
2018-10-01T21:41:51.242Z,11.80
2018-10-01T21:44:19.886Z,9.13
2018-10-01T21:46:48.755Z,12.67
2018-10-01T21:49:17.257Z,7.53
2018-10-01T21:51:46.085Z,8.90
2018-10-01T21:54:15.243Z,12.40
2018-10-01T21:56:44.433Z,7.70
2018-10-01T21:59:12.897Z,22.53
2018-10-01T22:01:41.500Z,18.23
2018-10-01T22:04:10.442Z,11.17
2018-10-01T22:06:39.099Z,17.03
2018-10-01T22:09:08.305Z,9.07
2018-10-01T22:11:37.376Z,31.33
2018-10-01T22:14:06.037Z,30.73
2018-10-01T22:16:35.092Z,31.80
2018-10-01T22:19:03.855Z,12.67
2018-10-01T22:21:32.574Z,18.53
2018-10-01T22:24:01.168Z,10.83
2018-10-01T22:26:29.533Z,10.77
2018-10-01T22:28:58.226Z,16.20
2018-10-01T22:31:27.313Z,12.57
2018-10-01T22:33:55.883Z,13.27
2018-10-01T22:36:26.579Z,28.80
2018-10-01T22:38:55.430Z,23.57
2018-10-01T22:41:24.186Z,15.90
2018-10-01T22:43:53.240Z,16.40
2018-10-01T22:46:21.725Z,13.83
2018-10-01T22:48:50.433Z,28.23
2018-10-01T22:51:18.861Z,19.63
2018-10-01T22:53:47.549Z,12.03
2018-10-01T22:56:16.084Z,11.90
2018-10-01T22:58:45.114Z,14.60
2018-10-01T23:01:13.533Z,36.67
2018-10-01T23:03:42.759Z,14.33
2018-10-01T23:06:11.927Z,8.63
2018-10-01T23:08:40.754Z,9.60
2018-10-01T23:11:09.362Z,7.63
2018-10-01T23:13:37.889Z,11.10
2018-10-01T23:16:06.578Z,18.10
2018-10-01T23:18:35.309Z,10.33
2018-10-01T23:21:03.771Z,8.57
2018-10-01T23:23:32.520Z,15.43
2018-10-01T23:26:00.967Z,10.80
2018-10-01T23:28:29.448Z,14.43
2018-10-01T23:30:58.283Z,12.53
2018-10-01T23:33:26.709Z,9.63
2018-10-01T23:35:55.297Z,17.70
2018-10-01T23:38:24.163Z,10.63
2018-10-01T23:40:52.824Z,13.60
2018-10-01T23:43:21.406Z,13.13
2018-10-01T23:45:49.896Z,9.87
2018-10-01T23:48:18.664Z,13.77
2018-10-01T23:50:47.820Z,12.20
2018-10-01T23:53:18.092Z,16.47
2018-10-01T23:55:47.213Z,12.13
2018-10-01T23:58:16.486Z,19.93
